Plentywood, MT (59254)

3:20 PM MDT on October 23, 2014 (GMT -0600)
MesoWest Navajo MT-5 16.7 MT US MT DOT | Change Station
CLOSE
Current Station
Personal Weather Station
Location: Redstone, MT
Elevation: 2568 ft
Nearby Weather Stations

Elev 2568 ft 48.81 °N, 105.06 °W | Updated 39 minutes ago

Partly Cloudy
Partly Cloudy
64 °F
Feels Like 64 °F
N
14
Wind Variable Wind from SW
Gusts 19.0 mph

Today
High -- | Low -- °F
--% Chance of Precip.
Yesterday
High -- | Low -- °F
Precip. -- in
7:31 AM 5:53 PM
Waning Crescent, 0% visible
Pressure 29.73 in
Visibility 10.0 miles
Clouds Clear
Dew Point 35 °F
Humidity 34%
Rainfall 0.00 in
Snow Depth Not available.
UV 2 out of 12
Pollen 1.60 out of 12
Air Quality Not available.
Flu Activity No Activity
METAR KD50 232115Z AUTO 22011KT 10SM CLR 16/01 A2973 RMK AO2

More Conditions Fewer Conditions

Pressure 29.73 in
Visibility 10.0 miles
Clouds Clear
Dew Point 35 °F
Humidity 34%
Rainfall 0.00 in
Snow Depth Not available.
UV 2 out of 12
Pollen 1.60 out of 12
Air Quality Not available.
Flu Activity No Activity
METAR KD50 232115Z AUTO 22011KT 10SM CLR 16/01 A2973 RMK AO2

More Conditions Fewer Conditions

10-Day Weather Forecast

Almanac

Astronomy

Oct. 23, 2014 Rise Set
Actual Time 7:31 AM MDT 5:53 PM MDT
Civil Twilight 6:59 AM MDT 6:26 PM MDT
Nautical Twilight 6:22 AM MDT 7:02 PM MDT
Astronomical Twilight 5:45 AM MDT 7:39 PM MDT
Moon 7:12 AM MDT 5:56 PM MDT
Length of Visible Light 11h 26m
Length of Day
10h 22m
Tomorrow will be 3m 22s shorter.
Waning Crescent, 0% of the Moon is Illuminated
Today
Waning Crescent
Oct 23
New
Oct 30
First Quarter
Nov 6
Full
Nov 14
Last Quarter

Today's Extremes

State Highs State Lows

Community

WunderPhotos

Upload Photos

1,764,374 photos uploaded!

WunderBlogs® & News

Nearby

Snow Depth

Station Depth Elevation
Crystal Lake 1 in 6050 ft
Spur Park 0 in 8100 ft
Deadman Creek 0 in 6450 ft
Onion Park 0 in 7410 ft
Stringer Creek 0 in 6550 ft

Earthquake Activity

City Distance Mag. Time & Date
No recent earthquake activity has been reported nearby.
Minimum magnitude displayed is 2.5.

Coastal Water Temperatures

Place Temperature
No Stations Reporting

Nearby Weather Stations